ミラノ/マルペンサ の空港の天気 - METARとTAF

ミラノ・マルペンサ国際空港 ( LIMC / MXP ) - イタリア ミラノ
飛行場実況気象(Metar)
観測時間05/29 00:20 CEST (05/28 22:20 UTC)
風向・風速東 5m/s
視程10km以上
天気現象
全天の8割程度の雲 雲底高度 1520m
気温17℃
湿度72%
気圧1009hPa
METARLIMC 282220Z 10009KT 9999 BKN050 17/12 Q1009 NOSIG
過去の天気等 Google飛行場航空写真 Wunderground天気予報

過去48時間のMETAR

飛行場予報(TAF)
発表時間: 5/28 19:00 CEST (5/28 17:00 UTC)
予報対象時間: 28日20時 CEST ~ 30日2時 CEST
風向・風速東南東 5m/s
視程10km以上
全天の4割程度の雲 雲底高度 610m
28日20時 CEST ~ 29日4時 CEST に一時的に
風向・風速東南東 8m/s 瞬間風速 13m/s
視程4000m
天気現象雷雨
29日18時 CEST ~ 29日20時 CEST に徐々に
風向・風速不定 3m/s
TAF LIMC 281700Z 2818/2924 11010KT 9999 SCT020
TEMPO 2818/2902 12015G25KT 4000 TSRA
BECMG 2916/2918 VRB05KT